Ana Sayfa
METAR-TAF:

METAR-TAF

Havaalanları :

Vamdrup

Kolding, Danimarka

Enlem: 55-26N, Boylam: 009-20E, yükseklik: 44 m

Güncel hava durumu gözlemi

Rapor saat 20:50 UTC de 19 dakika önce yapıldı.
Rüzgar batıdan 14 kt
Sıcaklık 5°C
Nem 87%
Basınç 1006 hPa

METAR: EKVD 232050Z AUTO 28014KT //// ///////// 05/03 Q1006

Saat: 22:09 (21:09 UTC)

Tahmin

Rapor saat 11:44 UTC de 9 saat ve 25 dakika önce yapıldı.
Ayın 23'si saat 12 UTC'den ayın 23'si saat 16 UTC'ye kadar geçerli Tahmin
Rüzgar batıdan 12 kt
Görüş mesafesi 10 km veya daha fazla
2000 ft yükseklikte parçalı çok bulutlu
Geçici
ayın 23'si saat 12 UTC'den ayın 23'si saat 16 UTC'ye kadar
Rüzgar batıdan 15 kt ve 25 kt'a kadar ani rüzgarlar
1200 ft yükseklikte parçalı çok bulutlu
2000 ft yükseklikte parçalı bulutlu, Kümülonimbus.
sağanak yağmurlar, Küçük dolu ve/veya kar paletleri

TAF: EKVD 231144Z 2312/2316 26012KT 9999 BKN020 TEMPO 2312/2316 27015G25KT SHRAGS BKN012 SCT020CB

4.000'den fazla havaalanı için hava durumu gözlemleri ve tahminleri (METAR ve TAF raporları).

Kullanılabilir istasyonlar harita üzerinde sarı ve kırmızı noktalarla gösterilir.

İstasyonun adını görmek için fareyi noktanın üzerinde gezdirin.

Sonrasında hava gözlem ve tahminlerini görmek için tıklayın.

Haritayı değiştirmek için: yaklaştırmak için siyah artı işaretli yeşil düğmeye ve uzaklaştırmak için de eksi işaretli düğmeye hızla tıklayın; bitişik haritalar için yeşil okları kullanın.


METAR-TAF: